sensor_id;sensor_type;location;lat;lon;timestamp;P1;durP1;ratioP1;P2;durP2;ratioP2
22186;SDS011;11259;52.146;12.844;2023-04-15T00:01:12;2.33;;;1.58;;
22186;SDS011;11259;52.146;12.844;2023-04-15T00:03:37;2.10;;;1.58;;
22186;SDS011;11259;52.146;12.844;2023-04-15T00:06:03;2.33;;;1.80;;
22186;SDS011;11259;52.146;12.844;2023-04-15T00:08:29;2.50;;;2.10;;
22186;SDS011;11259;52.146;12.844;2023-04-15T00:10:56;4.07;;;2.00;;
22186;SDS011;11259;52.146;12.844;2023-04-15T00:13:21;2.30;;;1.73;;
22186;SDS011;11259;52.146;12.844;2023-04-15T00:15:47;1.95;;;1.77;;
22186;SDS011;11259;52.146;12.844;2023-04-15T00:18:12;2.10;;;1.80;;
22186;SDS011;11259;52.146;12.844;2023-04-15T00:20:37;2.35;;;2.00;;
22186;SDS011;11259;52.146;12.844;2023-04-15T00:23:03;3.33;;;1.98;;
22186;SDS011;11259;52.146;12.844;2023-04-15T00:25:28;2.67;;;2.45;;
22186;SDS011;11259;52.146;12.844;2023-04-15T00:27:55;3.25;;;2.03;;
22186;SDS011;11259;52.146;12.844;2023-04-15T00:30:20;2.53;;;1.85;;
22186;SDS011;11259;52.146;12.844;2023-04-15T00:32:45;2.90;;;2.42;;
22186;SDS011;11259;52.146;12.844;2023-04-15T00:35:11;2.25;;;2.00;;
22186;SDS011;11259;52.146;12.844;2023-04-15T00:37:36;2.83;;;2.00;;
22186;SDS011;11259;52.146;12.844;2023-04-15T00:40:02;3.17;;;2.15;;
22186;SDS011;11259;52.146;12.844;2023-04-15T00:42:28;3.72;;;2.45;;
22186;SDS011;11259;52.146;12.844;2023-04-15T00:44:54;2.85;;;2.10;;
22186;SDS011;11259;52.146;12.844;2023-04-15T00:47:20;3.97;;;2.47;;
22186;SDS011;11259;52.146;12.844;2023-04-15T00:49:45;2.13;;;1.65;;
22186;SDS011;11259;52.146;12.844;2023-04-15T00:52:11;2.53;;;1.77;;
22186;SDS011;11259;52.146;12.844;2023-04-15T00:54:36;2.42;;;2.13;;
22186;SDS011;11259;52.146;12.844;2023-04-15T00:57:01;2.00;;;1.73;;
22186;SDS011;11259;52.146;12.844;2023-04-15T00:59:29;3.17;;;2.40;;
22186;SDS011;11259;52.146;12.844;2023-04-15T01:01:56;4.63;;;2.17;;
22186;SDS011;11259;52.146;12.844;2023-04-15T01:04:22;4.32;;;2.83;;
22186;SDS011;11259;52.146;12.844;2023-04-15T01:06:47;4.30;;;3.00;;
22186;SDS011;11259;52.146;12.844;2023-04-15T01:09:12;3.60;;;2.15;;
22186;SDS011;11259;52.146;12.844;2023-04-15T01:11:38;3.30;;;2.17;;
22186;SDS011;11259;52.146;12.844;2023-04-15T01:14:03;4.03;;;2.58;;
22186;SDS011;11259;52.146;12.844;2023-04-15T01:16:28;2.42;;;1.83;;
22186;SDS011;11259;52.146;12.844;2023-04-15T01:18:55;3.58;;;2.28;;
22186;SDS011;11259;52.146;12.844;2023-04-15T01:21:21;2.85;;;2.38;;
22186;SDS011;11259;52.146;12.844;2023-04-15T01:23:47;4.05;;;2.75;;
22186;SDS011;11259;52.146;12.844;2023-04-15T01:26:14;5.97;;;2.45;;
22186;SDS011;11259;52.146;12.844;2023-04-15T01:28:40;4.57;;;2.63;;
22186;SDS011;11259;52.146;12.844;2023-04-15T01:31:05;4.30;;;2.47;;
22186;SDS011;11259;52.146;12.844;2023-04-15T01:33:31;4.13;;;2.90;;
22186;SDS011;11259;52.146;12.844;2023-04-15T01:35:57;4.20;;;2.80;;
22186;SDS011;11259;52.146;12.844;2023-04-15T01:38:22;3.65;;;2.75;;
22186;SDS011;11259;52.146;12.844;2023-04-15T01:40:48;3.00;;;2.47;;
22186;SDS011;11259;52.146;12.844;2023-04-15T01:43:14;4.15;;;2.45;;
22186;SDS011;11259;52.146;12.844;2023-04-15T01:45:40;3.45;;;2.45;;
22186;SDS011;11259;52.146;12.844;2023-04-15T01:48:05;5.25;;;2.90;;
22186;SDS011;11259;52.146;12.844;2023-04-15T01:50:30;7.07;;;2.65;;
22186;SDS011;11259;52.146;12.844;2023-04-15T01:52:56;4.75;;;2.70;;
22186;SDS011;11259;52.146;12.844;2023-04-15T01:55:21;4.30;;;2.90;;
22186;SDS011;11259;52.146;12.844;2023-04-15T01:57:46;4.57;;;2.88;;
22186;SDS011;11259;52.146;12.844;2023-04-15T02:00:13;4.38;;;3.22;;
22186;SDS011;11259;52.146;12.844;2023-04-15T02:02:39;2.80;;;2.38;;
22186;SDS011;11259;52.146;12.844;2023-04-15T02:05:05;4.90;;;3.47;;
22186;SDS011;11259;52.146;12.844;2023-04-15T02:07:30;4.05;;;2.45;;
22186;SDS011;11259;52.146;12.844;2023-04-15T02:09:56;5.75;;;2.53;;
22186;SDS011;11259;52.146;12.844;2023-04-15T02:12:21;4.60;;;2.95;;
22186;SDS011;11259;52.146;12.844;2023-04-15T02:14:46;5.07;;;2.63;;
22186;SDS011;11259;52.146;12.844;2023-04-15T02:17:13;4.43;;;3.10;;
22186;SDS011;11259;52.146;12.844;2023-04-15T02:19:38;3.13;;;2.33;;
22186;SDS011;11259;52.146;12.844;2023-04-15T02:22:03;5.93;;;3.17;;
22186;SDS011;11259;52.146;12.844;2023-04-15T02:24:29;5.60;;;3.38;;
22186;SDS011;11259;52.146;12.844;2023-04-15T02:26:54;4.65;;;2.95;;
22186;SDS011;11259;52.146;12.844;2023-04-15T02:29:20;5.45;;;3.17;;
22186;SDS011;11259;52.146;12.844;2023-04-15T02:31:45;5.18;;;3.80;;
22186;SDS011;11259;52.146;12.844;2023-04-15T02:34:12;5.05;;;3.25;;
22186;SDS011;11259;52.146;12.844;2023-04-15T02:36:37;4.85;;;2.85;;
22186;SDS011;11259;52.146;12.844;2023-04-15T02:39:02;4.53;;;3.28;;
22186;SDS011;11259;52.146;12.844;2023-04-15T02:41:28;3.88;;;2.88;;
22186;SDS011;11259;52.146;12.844;2023-04-15T02:43:53;4.32;;;3.13;;
22186;SDS011;11259;52.146;12.844;2023-04-15T02:46:18;4.60;;;3.72;;
22186;SDS011;11259;52.146;12.844;2023-04-15T02:48:44;4.68;;;3.03;;
22186;SDS011;11259;52.146;12.844;2023-04-15T02:51:11;7.22;;;3.92;;
22186;SDS011;11259;52.146;12.844;2023-04-15T02:53:37;6.90;;;3.22;;
22186;SDS011;11259;52.146;12.844;2023-04-15T02:56:02;7.40;;;3.55;;
22186;SDS011;11259;52.146;12.844;2023-04-15T02:58:28;9.82;;;3.72;;
22186;SDS011;11259;52.146;12.844;2023-04-15T03:00:53;4.35;;;3.00;;
22186;SDS011;11259;52.146;12.844;2023-04-15T03:03:19;6.38;;;2.92;;
22186;SDS011;11259;52.146;12.844;2023-04-15T03:05:44;5.85;;;3.33;;
22186;SDS011;11259;52.146;12.844;2023-04-15T03:08:11;6.40;;;3.75;;
22186;SDS011;11259;52.146;12.844;2023-04-15T03:10:36;5.85;;;3.92;;
22186;SDS011;11259;52.146;12.844;2023-04-15T03:13:01;5.85;;;3.35;;
22186;SDS011;11259;52.146;12.844;2023-04-15T03:15:27;4.38;;;3.30;;
22186;SDS011;11259;52.146;12.844;2023-04-15T03:17:52;4.20;;;3.53;;
22186;SDS011;11259;52.146;12.844;2023-04-15T03:20:17;6.32;;;3.60;;
22186;SDS011;11259;52.146;12.844;2023-04-15T03:22:43;4.82;;;3.42;;
22186;SDS011;11259;52.146;12.844;2023-04-15T03:25:09;6.75;;;3.40;;
22186;SDS011;11259;52.146;12.844;2023-04-15T03:27:35;7.93;;;4.15;;
22186;SDS011;11259;52.146;12.844;2023-04-15T03:30:01;3.97;;;3.13;;
22186;SDS011;11259;52.146;12.844;2023-04-15T03:32:27;4.80;;;2.90;;
22186;SDS011;11259;52.146;12.844;2023-04-15T03:34:52;7.25;;;3.55;;
22186;SDS011;11259;52.146;12.844;2023-04-15T03:37:18;6.05;;;4.70;;
22186;SDS011;11259;52.146;12.844;2023-04-15T03:39:43;6.60;;;3.53;;
22186;SDS011;11259;52.146;12.844;2023-04-15T03:42:10;5.28;;;3.85;;
22186;SDS011;11259;52.146;12.844;2023-04-15T03:44:35;8.15;;;3.85;;
22186;SDS011;11259;52.146;12.844;2023-04-15T03:47:00;7.82;;;4.20;;
22186;SDS011;11259;52.146;12.844;2023-04-15T03:49:26;8.23;;;4.75;;
22186;SDS011;11259;52.146;12.844;2023-04-15T03:51:51;8.48;;;4.75;;
22186;SDS011;11259;52.146;12.844;2023-04-15T03:54:16;7.88;;;4.57;;
22186;SDS011;11259;52.146;12.844;2023-04-15T03:56:41;7.32;;;4.07;;
22186;SDS011;11259;52.146;12.844;2023-04-15T03:59:08;5.93;;;4.05;;
22186;SDS011;11259;52.146;12.844;2023-04-15T04:01:33;12.70;;;4.10;;
22186;SDS011;11259;52.146;12.844;2023-04-15T04:03:59;11.98;;;5.40;;
22186;SDS011;11259;52.146;12.844;2023-04-15T04:06:25;7.30;;;4.57;;
22186;SDS011;11259;52.146;12.844;2023-04-15T04:08:50;15.77;;;5.95;;
22186;SDS011;11259;52.146;12.844;2023-04-15T04:11:16;7.47;;;4.97;;
22186;SDS011;11259;52.146;12.844;2023-04-15T04:13:41;9.50;;;5.28;;
22186;SDS011;11259;52.146;12.844;2023-04-15T04:16:08;11.88;;;6.15;;
22186;SDS011;11259;52.146;12.844;2023-04-15T04:18:33;9.35;;;5.15;;
22186;SDS011;11259;52.146;12.844;2023-04-15T04:20:58;8.85;;;4.80;;
22186;SDS011;11259;52.146;12.844;2023-04-15T04:23:24;10.98;;;6.30;;
22186;SDS011;11259;52.146;12.844;2023-04-15T04:25:49;7.57;;;6.13;;
22186;SDS011;11259;52.146;12.844;2023-04-15T04:28:15;11.20;;;5.93;;
22186;SDS011;11259;52.146;12.844;2023-04-15T04:30:40;8.90;;;5.45;;
22186;SDS011;11259;52.146;12.844;2023-04-15T04:33:07;8.80;;;5.82;;
22186;SDS011;11259;52.146;12.844;2023-04-15T04:35:32;8.15;;;5.03;;
22186;SDS011;11259;52.146;12.844;2023-04-15T04:37:57;10.57;;;6.32;;
22186;SDS011;11259;52.146;12.844;2023-04-15T04:40:23;10.48;;;6.22;;
22186;SDS011;11259;52.146;12.844;2023-04-15T04:42:48;9.65;;;4.75;;
22186;SDS011;11259;52.146;12.844;2023-04-15T04:45:13;11.02;;;5.97;;
22186;SDS011;11259;52.146;12.844;2023-04-15T04:47:39;11.85;;;4.85;;
22186;SDS011;11259;52.146;12.844;2023-04-15T04:50:06;8.63;;;5.55;;
22186;SDS011;11259;52.146;12.844;2023-04-15T04:52:32;8.18;;;5.03;;
22186;SDS011;11259;52.146;12.844;2023-04-15T04:54:58;9.25;;;5.05;;
22186;SDS011;11259;52.146;12.844;2023-04-15T04:57:23;10.05;;;6.50;;
22186;SDS011;11259;52.146;12.844;2023-04-15T04:59:48;8.25;;;5.15;;
22186;SDS011;11259;52.146;12.844;2023-04-15T05:02:13;11.00;;;6.00;;
22186;SDS011;11259;52.146;12.844;2023-04-15T05:04:39;10.07;;;4.93;;
22186;SDS011;11259;52.146;12.844;2023-04-15T05:07:05;9.73;;;5.50;;
22186;SDS011;11259;52.146;12.844;2023-04-15T05:09:31;10.27;;;5.47;;
22186;SDS011;11259;52.146;12.844;2023-04-15T05:11:56;9.60;;;5.82;;
22186;SDS011;11259;52.146;12.844;2023-04-15T05:14:21;10.27;;;6.03;;
22186;SDS011;11259;52.146;12.844;2023-04-15T05:16:47;9.75;;;5.97;;
22186;SDS011;11259;52.146;12.844;2023-04-15T05:19:12;11.35;;;6.38;;
22186;SDS011;11259;52.146;12.844;2023-04-15T05:21:37;10.70;;;7.20;;
22186;SDS011;11259;52.146;12.844;2023-04-15T05:24:04;15.35;;;6.75;;
22186;SDS011;11259;52.146;12.844;2023-04-15T05:26:30;11.02;;;6.18;;
22186;SDS011;11259;52.146;12.844;2023-04-15T05:28:55;13.07;;;7.95;;
22186;SDS011;11259;52.146;12.844;2023-04-15T05:31:21;14.25;;;7.40;;
22186;SDS011;11259;52.146;12.844;2023-04-15T05:33:46;12.40;;;6.32;;
22186;SDS011;11259;52.146;12.844;2023-04-15T05:36:11;10.40;;;6.13;;
22186;SDS011;11259;52.146;12.844;2023-04-15T05:38:37;9.27;;;5.63;;
22186;SDS011;11259;52.146;12.844;2023-04-15T05:41:03;11.40;;;6.95;;
22186;SDS011;11259;52.146;12.844;2023-04-15T05:43:29;11.60;;;6.13;;
22186;SDS011;11259;52.146;12.844;2023-04-15T05:45:54;11.80;;;6.60;;
22186;SDS011;11259;52.146;12.844;2023-04-15T05:48:20;12.23;;;6.65;;
22186;SDS011;11259;52.146;12.844;2023-04-15T05:50:45;12.32;;;7.10;;
22186;SDS011;11259;52.146;12.844;2023-04-15T05:53:11;12.30;;;6.55;;
22186;SDS011;11259;52.146;12.844;2023-04-15T05:55:36;8.57;;;6.00;;
22186;SDS011;11259;52.146;12.844;2023-04-15T05:58:03;13.95;;;6.88;;
22186;SDS011;11259;52.146;12.844;2023-04-15T06:00:28;14.13;;;7.70;;
22186;SDS011;11259;52.146;12.844;2023-04-15T06:02:54;8.82;;;5.13;;
22186;SDS011;11259;52.146;12.844;2023-04-15T06:05:20;12.30;;;6.78;;
22186;SDS011;11259;52.146;12.844;2023-04-15T06:07:45;15.48;;;7.18;;
22186;SDS011;11259;52.146;12.844;2023-04-15T06:10:10;12.18;;;6.57;;
22186;SDS011;11259;52.146;12.844;2023-04-15T06:12:37;9.10;;;5.72;;
22186;SDS011;11259;52.146;12.844;2023-04-15T06:15:05;10.73;;;5.70;;
22186;SDS011;11259;52.146;12.844;2023-04-15T06:17:31;14.50;;;8.63;;
22186;SDS011;11259;52.146;12.844;2023-04-15T06:19:57;11.15;;;6.85;;
22186;SDS011;11259;52.146;12.844;2023-04-15T06:22:23;9.80;;;6.78;;
22186;SDS011;11259;52.146;12.844;2023-04-15T06:24:48;11.68;;;6.75;;
22186;SDS011;11259;52.146;12.844;2023-04-15T06:27:14;10.77;;;7.22;;
22186;SDS011;11259;52.146;12.844;2023-04-15T06:29:39;10.98;;;5.90;;
22186;SDS011;11259;52.146;12.844;2023-04-15T06:32:06;9.82;;;6.30;;
22186;SDS011;11259;52.146;12.844;2023-04-15T06:34:31;11.48;;;6.85;;
22186;SDS011;11259;52.146;12.844;2023-04-15T06:36:57;8.23;;;6.22;;
22186;SDS011;11259;52.146;12.844;2023-04-15T06:39:22;10.93;;;7.10;;
22186;SDS011;11259;52.146;12.844;2023-04-15T06:41:47;9.95;;;6.75;;
22186;SDS011;11259;52.146;12.844;2023-04-15T06:44:13;11.73;;;6.30;;
22186;SDS011;11259;52.146;12.844;2023-04-15T06:46:38;12.05;;;6.80;;
22186;SDS011;11259;52.146;12.844;2023-04-15T06:49:05;9.23;;;6.00;;
22186;SDS011;11259;52.146;12.844;2023-04-15T06:51:30;7.93;;;5.93;;
22186;SDS011;11259;52.146;12.844;2023-04-15T06:53:56;10.48;;;5.68;;
22186;SDS011;11259;52.146;12.844;2023-04-15T06:56:21;9.88;;;6.00;;
22186;SDS011;11259;52.146;12.844;2023-04-15T06:58:46;8.10;;;5.30;;
22186;SDS011;11259;52.146;12.844;2023-04-15T07:01:12;10.45;;;6.47;;
22186;SDS011;11259;52.146;12.844;2023-04-15T07:03:37;11.48;;;6.88;;
22186;SDS011;11259;52.146;12.844;2023-04-15T07:06:04;9.30;;;5.45;;
22186;SDS011;11259;52.146;12.844;2023-04-15T07:08:29;10.57;;;6.32;;
22186;SDS011;11259;52.146;12.844;2023-04-15T07:10:54;7.55;;;4.63;;
22186;SDS011;11259;52.146;12.844;2023-04-15T07:13:20;7.85;;;5.03;;
22186;SDS011;11259;52.146;12.844;2023-04-15T07:15:45;8.30;;;5.88;;
22186;SDS011;11259;52.146;12.844;2023-04-15T07:18:10;11.82;;;5.70;;
22186;SDS011;11259;52.146;12.844;2023-04-15T07:20:36;10.27;;;5.82;;
22186;SDS011;11259;52.146;12.844;2023-04-15T07:23:02;9.85;;;5.70;;
22186;SDS011;11259;52.146;12.844;2023-04-15T07:25:28;16.05;;;6.53;;
22186;SDS011;11259;52.146;12.844;2023-04-15T07:27:53;9.13;;;6.78;;
22186;SDS011;11259;52.146;12.844;2023-04-15T07:30:18;8.82;;;5.13;;
22186;SDS011;11259;52.146;12.844;2023-04-15T07:32:44;8.75;;;6.03;;
22186;SDS011;11259;52.146;12.844;2023-04-15T07:35:09;8.95;;;5.05;;
22186;SDS011;11259;52.146;12.844;2023-04-15T07:37:34;8.82;;;4.63;;
22186;SDS011;11259;52.146;12.844;2023-04-15T07:40:01;8.65;;;5.75;;
22186;SDS011;11259;52.146;12.844;2023-04-15T07:42:27;8.20;;;4.97;;
22186;SDS011;11259;52.146;12.844;2023-04-15T07:44:52;6.75;;;4.60;;
22186;SDS011;11259;52.146;12.844;2023-04-15T07:47:17;7.80;;;5.25;;
22186;SDS011;11259;52.146;12.844;2023-04-15T07:49:43;7.63;;;4.78;;
22186;SDS011;11259;52.146;12.844;2023-04-15T07:52:08;8.75;;;5.43;;
22186;SDS011;11259;52.146;12.844;2023-04-15T07:54:33;6.95;;;4.70;;
22186;SDS011;11259;52.146;12.844;2023-04-15T07:57:00;10.27;;;5.82;;
22186;SDS011;11259;52.146;12.844;2023-04-15T07:59:25;8.05;;;4.53;;
22186;SDS011;11259;52.146;12.844;2023-04-15T08:01:51;6.82;;;4.95;;
22186;SDS011;11259;52.146;12.844;2023-04-15T08:04:16;8.77;;;5.43;;
22186;SDS011;11259;52.146;12.844;2023-04-15T08:06:41;5.70;;;4.15;;
22186;SDS011;11259;52.146;12.844;2023-04-15T08:09:07;7.40;;;4.22;;
22186;SDS011;11259;52.146;12.844;2023-04-15T08:11:32;7.80;;;5.10;;
22186;SDS011;11259;52.146;12.844;2023-04-15T08:13:59;9.85;;;5.90;;
22186;SDS011;11259;52.146;12.844;2023-04-15T08:16:24;7.55;;;4.35;;
22186;SDS011;11259;52.146;12.844;2023-04-15T08:18:51;7.82;;;4.90;;
22186;SDS011;11259;52.146;12.844;2023-04-15T08:21:17;9.43;;;5.20;;
22186;SDS011;11259;52.146;12.844;2023-04-15T08:23:43;7.07;;;4.93;;
22186;SDS011;11259;52.146;12.844;2023-04-15T08:26:09;9.25;;;5.28;;
22186;SDS011;11259;52.146;12.844;2023-04-15T08:28:34;8.90;;;4.97;;
22186;SDS011;11259;52.146;12.844;2023-04-15T08:31:02;7.75;;;4.95;;
22186;SDS011;11259;52.146;12.844;2023-04-15T08:33:27;9.45;;;4.97;;
22186;SDS011;11259;52.146;12.844;2023-04-15T08:35:53;7.00;;;4.35;;
22186;SDS011;11259;52.146;12.844;2023-04-15T08:38:18;8.07;;;4.57;;
22186;SDS011;11259;52.146;12.844;2023-04-15T08:40:44;9.45;;;5.47;;
22186;SDS011;11259;52.146;12.844;2023-04-15T08:43:11;6.65;;;4.78;;
22186;SDS011;11259;52.146;12.844;2023-04-15T08:45:40;7.40;;;4.53;;
22186;SDS011;11259;52.146;12.844;2023-04-15T08:48:07;8.40;;;4.25;;
22186;SDS011;11259;52.146;12.844;2023-04-15T08:50:34;6.57;;;3.80;;
22186;SDS011;11259;52.146;12.844;2023-04-15T08:52:59;6.28;;;4.40;;
22186;SDS011;11259;52.146;12.844;2023-04-15T08:55:25;7.38;;;4.85;;
22186;SDS011;11259;52.146;12.844;2023-04-15T08:57:53;7.65;;;5.15;;
22186;SDS011;11259;52.146;12.844;2023-04-15T09:00:18;9.38;;;4.68;;
22186;SDS011;11259;52.146;12.844;2023-04-15T09:02:44;9.63;;;5.55;;
22186;SDS011;11259;52.146;12.844;2023-04-15T09:05:10;7.90;;;5.03;;
22186;SDS011;11259;52.146;12.844;2023-04-15T09:07:36;7.65;;;4.18;;
22186;SDS011;11259;52.146;12.844;2023-04-15T09:10:02;7.15;;;4.00;;
22186;SDS011;11259;52.146;12.844;2023-04-15T09:12:27;9.43;;;5.22;;
22186;SDS011;11259;52.146;12.844;2023-04-15T09:14:53;6.40;;;4.55;;
22186;SDS011;11259;52.146;12.844;2023-04-15T09:17:18;7.22;;;4.10;;
22186;SDS011;11259;52.146;12.844;2023-04-15T09:19:44;7.00;;;4.95;;
22186;SDS011;11259;52.146;12.844;2023-04-15T09:22:11;7.28;;;4.90;;
22186;SDS011;11259;52.146;12.844;2023-04-15T09:24:37;8.82;;;5.20;;
22186;SDS011;11259;52.146;12.844;2023-04-15T09:27:03;7.85;;;5.18;;
22186;SDS011;11259;52.146;12.844;2023-04-15T09:29:28;7.40;;;5.28;;
22186;SDS011;11259;52.146;12.844;2023-04-15T09:31:53;7.88;;;5.07;;
22186;SDS011;11259;52.146;12.844;2023-04-15T09:34:19;7.13;;;4.45;;
22186;SDS011;11259;52.146;12.844;2023-04-15T09:36:51;7.80;;;4.97;;
22186;SDS011;11259;52.146;12.844;2023-04-15T09:39:19;8.45;;;5.03;;
22186;SDS011;11259;52.146;12.844;2023-04-15T09:41:44;8.57;;;5.13;;
22186;SDS011;11259;52.146;12.844;2023-04-15T09:44:20;7.93;;;5.25;;
22186;SDS011;11259;52.146;12.844;2023-04-15T09:46:46;7.75;;;5.15;;
22186;SDS011;11259;52.146;12.844;2023-04-15T09:49:12;8.93;;;5.10;;
22186;SDS011;11259;52.146;12.844;2023-04-15T09:51:37;8.85;;;5.18;;
22186;SDS011;11259;52.146;12.844;2023-04-15T09:54:03;6.82;;;4.38;;
22186;SDS011;11259;52.146;12.844;2023-04-15T09:56:33;7.28;;;5.10;;
22186;SDS011;11259;52.146;12.844;2023-04-15T09:58:58;8.20;;;5.05;;
22186;SDS011;11259;52.146;12.844;2023-04-15T10:01:24;8.52;;;5.70;;
22186;SDS011;11259;52.146;12.844;2023-04-15T10:03:49;8.23;;;5.43;;
22186;SDS011;11259;52.146;12.844;2023-04-15T10:06:15;5.72;;;3.95;;
22186;SDS011;11259;52.146;12.844;2023-04-15T10:08:40;8.48;;;5.10;;
22186;SDS011;11259;52.146;12.844;2023-04-15T10:11:06;9.10;;;4.25;;
22186;SDS011;11259;52.146;12.844;2023-04-15T10:13:33;6.78;;;4.95;;
22186;SDS011;11259;52.146;12.844;2023-04-15T10:15:59;9.93;;;5.88;;
22186;SDS011;11259;52.146;12.844;2023-04-15T10:18:27;8.23;;;5.80;;
22186;SDS011;11259;52.146;12.844;2023-04-15T10:20:52;9.05;;;5.38;;
22186;SDS011;11259;52.146;12.844;2023-04-15T10:23:18;8.40;;;5.20;;
22186;SDS011;11259;52.146;12.844;2023-04-15T10:25:45;8.68;;;5.50;;
22186;SDS011;11259;52.146;12.844;2023-04-15T10:28:10;7.93;;;5.15;;
22186;SDS011;11259;52.146;12.844;2023-04-15T10:30:37;7.93;;;5.20;;
22186;SDS011;11259;52.146;12.844;2023-04-15T10:33:03;8.90;;;5.90;;
22186;SDS011;11259;52.146;12.844;2023-04-15T10:35:29;7.63;;;5.20;;
22186;SDS011;11259;52.146;12.844;2023-04-15T10:37:56;8.00;;;5.32;;
22186;SDS011;11259;52.146;12.844;2023-04-15T10:40:28;8.05;;;5.45;;
22186;SDS011;11259;52.146;12.844;2023-04-15T10:42:54;8.13;;;5.28;;
22186;SDS011;11259;52.146;12.844;2023-04-15T10:45:19;9.23;;;5.40;;
22186;SDS011;11259;52.146;12.844;2023-04-15T10:47:46;6.45;;;5.07;;
22186;SDS011;11259;52.146;12.844;2023-04-15T10:50:16;12.10;;;4.85;;
22186;SDS011;11259;52.146;12.844;2023-04-15T10:52:43;9.23;;;6.03;;
22186;SDS011;11259;52.146;12.844;2023-04-15T10:55:12;6.47;;;3.85;;
22186;SDS011;11259;52.146;12.844;2023-04-15T10:57:38;6.85;;;4.95;;
22186;SDS011;11259;52.146;12.844;2023-04-15T11:00:11;9.25;;;5.25;;
22186;SDS011;11259;52.146;12.844;2023-04-15T11:02:41;15.63;;;5.78;;
22186;SDS011;11259;52.146;12.844;2023-04-15T11:05:10;8.15;;;4.78;;
22186;SDS011;11259;52.146;12.844;2023-04-15T11:07:37;8.75;;;5.97;;
22186;SDS011;11259;52.146;12.844;2023-04-15T11:10:05;6.93;;;5.20;;
22186;SDS011;11259;52.146;12.844;2023-04-15T11:13:15;7.72;;;4.88;;
22186;SDS011;11259;52.146;12.844;2023-04-15T11:15:41;8.93;;;5.50;;
22186;SDS011;11259;52.146;12.844;2023-04-15T11:18:08;8.43;;;5.43;;
22186;SDS011;11259;52.146;12.844;2023-04-15T11:20:36;7.57;;;5.13;;
22186;SDS011;11259;52.146;12.844;2023-04-15T11:23:01;6.88;;;4.85;;
22186;SDS011;11259;52.146;12.844;2023-04-15T11:25:28;7.15;;;4.93;;
22186;SDS011;11259;52.146;12.844;2023-04-15T11:27:55;7.43;;;4.50;;
22186;SDS011;11259;52.146;12.844;2023-04-15T11:30:21;11.80;;;5.75;;
22186;SDS011;11259;52.146;12.844;2023-04-15T11:32:47;6.32;;;5.07;;
22186;SDS011;11259;52.146;12.844;2023-04-15T11:35:13;7.60;;;5.55;;
22186;SDS011;11259;52.146;12.844;2023-04-15T11:37:40;15.90;;;5.18;;
22186;SDS011;11259;52.146;12.844;2023-04-15T11:40:06;6.72;;;4.90;;
22186;SDS011;11259;52.146;12.844;2023-04-15T11:42:32;6.40;;;4.78;;
22186;SDS011;11259;52.146;12.844;2023-04-15T11:45:05;6.53;;;4.07;;
22186;SDS011;11259;52.146;12.844;2023-04-15T11:47:31;8.02;;;5.00;;
22186;SDS011;11259;52.146;12.844;2023-04-15T11:49:56;8.10;;;4.97;;
22186;SDS011;11259;52.146;12.844;2023-04-15T11:52:21;7.28;;;4.78;;
22186;SDS011;11259;52.146;12.844;2023-04-15T11:54:48;7.50;;;4.70;;
22186;SDS011;11259;52.146;12.844;2023-04-15T11:57:13;7.38;;;5.30;;
22186;SDS011;11259;52.146;12.844;2023-04-15T11:59:42;7.93;;;5.65;;
22186;SDS011;11259;52.146;12.844;2023-04-15T12:02:10;6.93;;;4.25;;
22186;SDS011;11259;52.146;12.844;2023-04-15T12:04:36;6.40;;;4.63;;
22186;SDS011;11259;52.146;12.844;2023-04-15T12:07:03;8.55;;;5.50;;
22186;SDS011;11259;52.146;12.844;2023-04-15T12:09:29;6.82;;;4.57;;
22186;SDS011;11259;52.146;12.844;2023-04-15T12:11:56;6.47;;;4.72;;
22186;SDS011;11259;52.146;12.844;2023-04-15T12:14:23;6.30;;;4.20;;
22186;SDS011;11259;52.146;12.844;2023-04-15T12:16:50;5.53;;;4.43;;
22186;SDS011;11259;52.146;12.844;2023-04-15T12:19:17;6.82;;;4.35;;
22186;SDS011;11259;52.146;12.844;2023-04-15T12:21:46;11.63;;;4.65;;
22186;SDS011;11259;52.146;12.844;2023-04-15T12:24:12;7.93;;;5.10;;
22186;SDS011;11259;52.146;12.844;2023-04-15T12:26:43;5.15;;;3.42;;
22186;SDS011;11259;52.146;12.844;2023-04-15T12:29:10;6.90;;;3.88;;
22186;SDS011;11259;52.146;12.844;2023-04-15T12:31:36;6.03;;;4.00;;
22186;SDS011;11259;52.146;12.844;2023-04-15T12:34:11;5.28;;;4.00;;
22186;SDS011;11259;52.146;12.844;2023-04-15T12:36:38;7.75;;;4.18;;
22186;SDS011;11259;52.146;12.844;2023-04-15T12:39:03;7.20;;;4.50;;
22186;SDS011;11259;52.146;12.844;2023-04-15T12:41:28;6.38;;;4.30;;
22186;SDS011;11259;52.146;12.844;2023-04-15T12:43:54;6.90;;;4.13;;
22186;SDS011;11259;52.146;12.844;2023-04-15T12:46:20;5.70;;;4.30;;
22186;SDS011;11259;52.146;12.844;2023-04-15T12:48:46;4.00;;;2.97;;
22186;SDS011;11259;52.146;12.844;2023-04-15T12:51:11;6.47;;;4.18;;
22186;SDS011;11259;52.146;12.844;2023-04-15T12:53:37;5.22;;;3.78;;
22186;SDS011;11259;52.146;12.844;2023-04-15T12:56:03;5.03;;;3.38;;
22186;SDS011;11259;52.146;12.844;2023-04-15T12:58:28;4.65;;;3.60;;
22186;SDS011;11259;52.146;12.844;2023-04-15T13:00:53;5.55;;;3.80;;
22186;SDS011;11259;52.146;12.844;2023-04-15T13:03:20;5.18;;;3.75;;
22186;SDS011;11259;52.146;12.844;2023-04-15T13:05:45;8.10;;;3.30;;
22186;SDS011;11259;52.146;12.844;2023-04-15T13:08:11;4.15;;;2.92;;
22186;SDS011;11259;52.146;12.844;2023-04-15T13:10:36;6.25;;;3.53;;
22186;SDS011;11259;52.146;12.844;2023-04-15T13:13:02;4.50;;;3.78;;
22186;SDS011;11259;52.146;12.844;2023-04-15T13:15:27;5.68;;;3.92;;
22186;SDS011;11259;52.146;12.844;2023-04-15T13:17:53;6.18;;;3.40;;
22186;SDS011;11259;52.146;12.844;2023-04-15T13:20:19;5.18;;;3.15;;
22186;SDS011;11259;52.146;12.844;2023-04-15T13:22:45;4.55;;;3.15;;
22186;SDS011;11259;52.146;12.844;2023-04-15T13:25:10;6.30;;;3.63;;
22186;SDS011;11259;52.146;12.844;2023-04-15T13:27:35;4.35;;;3.15;;
22186;SDS011;11259;52.146;12.844;2023-04-15T13:30:01;5.22;;;3.80;;
22186;SDS011;11259;52.146;12.844;2023-04-15T13:32:26;4.47;;;2.72;;
22186;SDS011;11259;52.146;12.844;2023-04-15T13:34:52;5.10;;;3.30;;
22186;SDS011;11259;52.146;12.844;2023-04-15T13:37:18;5.45;;;3.92;;
22186;SDS011;11259;52.146;12.844;2023-04-15T13:39:44;3.92;;;2.97;;
22186;SDS011;11259;52.146;12.844;2023-04-15T13:42:09;4.82;;;3.25;;
22186;SDS011;11259;52.146;12.844;2023-04-15T13:44:34;4.03;;;2.95;;
22186;SDS011;11259;52.146;12.844;2023-04-15T13:47:00;5.45;;;3.25;;
22186;SDS011;11259;52.146;12.844;2023-04-15T13:49:25;4.95;;;3.20;;
22186;SDS011;11259;52.146;12.844;2023-04-15T13:51:50;4.53;;;2.92;;
22186;SDS011;11259;52.146;12.844;2023-04-15T13:54:17;3.55;;;2.85;;
22186;SDS011;11259;52.146;12.844;2023-04-15T13:56:42;3.65;;;3.30;;
22186;SDS011;11259;52.146;12.844;2023-04-15T13:59:08;4.45;;;3.25;;
22186;SDS011;11259;52.146;12.844;2023-04-15T14:01:33;4.90;;;3.33;;
22186;SDS011;11259;52.146;12.844;2023-04-15T14:03:59;4.15;;;3.13;;
22186;SDS011;11259;52.146;12.844;2023-04-15T14:06:24;5.07;;;3.50;;
22186;SDS011;11259;52.146;12.844;2023-04-15T14:08:50;3.55;;;2.60;;
22186;SDS011;11259;52.146;12.844;2023-04-15T14:11:16;5.72;;;3.65;;
22186;SDS011;11259;52.146;12.844;2023-04-15T14:13:42;3.88;;;2.65;;
22186;SDS011;11259;52.146;12.844;2023-04-15T14:16:07;3.35;;;2.70;;
22186;SDS011;11259;52.146;12.844;2023-04-15T14:18:32;3.90;;;3.40;;
22186;SDS011;11259;52.146;12.844;2023-04-15T14:20:58;3.95;;;2.80;;
22186;SDS011;11259;52.146;12.844;2023-04-15T14:23:23;4.22;;;2.92;;
22186;SDS011;11259;52.146;12.844;2023-04-15T14:25:49;4.57;;;2.75;;